Terminal Aerodrome Forecast
Issued by NWS Charleston, WV

Current Version | Previous Version | Graphics & Text | Print | Product List | Glossary On
Versions: 1 2 3 4 5 6 7 8 9 10 11 12 13 14 15 16 17 18 19 20 21 22 23 24 25 26 27
000
FTUS41 KRLX 280800 AAA
TAFHTS
TAF AMD
KHTS 280831Z 2809/2906 20008KT P6SM SCT140 BKN200
     FM281500 21013G22KT P6SM SCT040
     FM281800 22013G22KT P6SM BKN045
     FM282300 24008KT 5SM SHRA BR BKN030
     FM290100 25006KT 3SM SHRA BR VCTS BKN025CB
     FM290300 28005KT 5SM BR BKN035=

USA.gov is the U.S. government's official web portal to all federal, state and local government web resources and services.